Time;durP1;ratioP1;P1;durP2;ratioP2;P2;SDS_P1;SDS_P2;PMS_P1;PMS_P2;Temp;Humidity;BMP_temperature;BMP_pressure;BME280_temperature;BME280_humidity;BME280_pressure;Samples;Min_cycle;Max_cycle;Signal;HPM_P1;HPM_P2
2022/04/04 00:01:20;;;;;;;;;;;17.90;46.70;;;;;;5021955;28;19913;-59
2022/04/04 00:03:45;;;;;;;;;;;17.80;46.60;;;;;;5021094;28;20542;-58
2022/04/04 00:06:11;;;;;;;;;;;17.80;46.70;;;;;;5021263;28;19917;-59
2022/04/04 00:08:36;;;;;;;;;;;17.80;46.70;;;;;;5020272;28;19917;-59
2022/04/04 00:11:02;;;;;;;;;;;17.80;46.80;;;;;;5021153;28;19913;-59
2022/04/04 00:13:27;;;;;;;;;;;17.80;46.80;;;;;;5021030;28;19921;-59
2022/04/04 00:15:53;;;;;;;;;;;17.80;46.80;;;;;;5020926;28;19927;-59
2022/04/04 00:18:19;;;;;;;;;;;17.80;46.90;;;;;;5021108;28;19913;-58
2022/04/04 00:20:44;;;;;;;;;;;17.70;46.90;;;;;;5021183;28;19940;-58
2022/04/04 00:23:13;;;;;;;;;;;17.80;46.90;;;;;;5020738;28;19913;-59
2022/04/04 00:25:42;;;;;;;;;;;17.80;47.00;;;;;;5020417;28;19921;-58
2022/04/04 00:28:07;;;;;;;;;;;17.80;47.00;;;;;;5020818;28;19920;-59
2022/04/04 00:30:33;;;;;;;;;;;17.80;47.00;;;;;;5020216;28;19913;-59
2022/04/04 00:32:58;;;;;;;;;;;17.80;47.00;;;;;;5020406;28;19913;-59
2022/04/04 00:35:24;;;;;;;;;;;17.80;46.90;;;;;;5020289;28;19921;-59
2022/04/04 00:37:49;;;;;;;;;;;17.80;46.90;;;;;;5019392;28;19996;-59
2022/04/04 00:40:15;;;;;;;;;;;17.80;46.90;;;;;;5019992;28;19917;-58
2022/04/04 00:42:40;;;;;;;;;;;17.80;47.50;;;;;;5020535;28;20332;-58
2022/04/04 00:45:06;;;;;;;;;;;17.80;46.90;;;;;;5018885;28;20147;-58
2022/04/04 00:47:31;;;;;;;;;;;17.80;46.80;;;;;;5019980;28;19924;-58
2022/04/04 00:49:57;;;;;;;;;;;17.80;46.80;;;;;;5020141;28;20406;-58
2022/04/04 00:52:23;;;;;;;;;;;17.80;46.80;;;;;;5021042;28;19940;-58
2022/04/04 00:54:48;;;;;;;;;;;17.80;46.80;;;;;;5018695;28;19920;-57
2022/04/04 00:57:14;;;;;;;;;;;17.80;46.70;;;;;;5020296;28;20027;-57
2022/04/04 00:59:39;;;;;;;;;;;17.90;46.80;;;;;;5019560;28;20297;-58
2022/04/04 01:02:05;;;;;;;;;;;17.80;46.70;;;;;;5019861;28;19970;-57
2022/04/04 01:04:30;;;;;;;;;;;17.90;46.70;;;;;;5019055;28;19913;-58
2022/04/04 01:06:56;;;;;;;;;;;17.90;46.70;;;;;;5019861;28;19914;-59
2022/04/04 01:09:22;;;;;;;;;;;17.90;46.70;;;;;;5018535;28;19936;-58
2022/04/04 01:12:07;;;;;;;;;;;17.90;46.60;;;;;;5019917;28;20348;-58
2022/04/04 01:14:52;;;;;;;;;;;17.90;46.60;;;;;;5019334;28;20302;-58
2022/04/04 01:17:18;;;;;;;;;;;17.90;46.50;;;;;;5019530;28;19967;-58
2022/04/04 01:19:44;;;;;;;;;;;17.90;46.50;;;;;;5017816;28;20345;-58
2022/04/04 01:22:11;;;;;;;;;;;17.90;46.50;;;;;;5020384;28;19967;-56
2022/04/04 01:24:38;;;;;;;;;;;17.90;46.50;;;;;;5020266;28;20004;-58
2022/04/04 01:27:04;;;;;;;;;;;18.00;46.50;;;;;;5019180;28;19913;-58
2022/04/04 01:29:30;;;;;;;;;;;18.00;46.50;;;;;;5019208;28;20096;-58
2022/04/04 01:31:55;;;;;;;;;;;18.00;46.60;;;;;;5019390;28;19924;-58
2022/04/04 01:34:21;;;;;;;;;;;18.00;46.70;;;;;;5019995;28;19913;-59
2022/04/04 01:36:46;;;;;;;;;;;18.00;46.80;;;;;;5019355;28;20008;-58
2022/04/04 01:39:12;;;;;;;;;;;18.10;46.90;;;;;;5018921;28;19917;-59
2022/04/04 01:41:37;;;;;;;;;;;18.20;46.80;;;;;;5017764;28;19921;-59
2022/04/04 01:44:03;;;;;;;;;;;18.10;46.70;;;;;;5019216;28;19951;-59
2022/04/04 01:46:28;;;;;;;;;;;18.20;46.80;;;;;;5019568;28;19921;-58
2022/04/04 01:48:55;;;;;;;;;;;18.30;46.70;;;;;;5019510;28;19924;-59
2022/04/04 01:51:20;;;;;;;;;;;18.30;46.60;;;;;;5020440;28;20282;-58
2022/04/04 01:53:46;;;;;;;;;;;18.30;46.50;;;;;;5019763;28;19924;-59
2022/04/04 01:56:11;;;;;;;;;;;18.40;46.40;;;;;;5019432;28;19920;-59
2022/04/04 01:58:37;;;;;;;;;;;18.40;46.40;;;;;;5018947;28;19913;-58
2022/04/04 02:01:08;;;;;;;;;;;18.40;46.50;;;;;;5019704;28;20380;-59
2022/04/04 02:03:33;;;;;;;;;;;18.40;46.50;;;;;;5018964;28;20119;-58
2022/04/04 02:05:59;;;;;;;;;;;18.40;46.60;;;;;;5019394;28;19917;-59
2022/04/04 02:08:24;;;;;;;;;;;18.40;46.60;;;;;;5018899;28;19970;-58
2022/04/04 02:10:50;;;;;;;;;;;18.30;46.60;;;;;;5019423;28;20392;-58
2022/04/04 02:13:15;;;;;;;;;;;18.30;46.70;;;;;;5019267;28;19913;-58
2022/04/04 02:15:41;;;;;;;;;;;18.30;46.70;;;;;;5019074;28;19914;-58
2022/04/04 02:18:06;;;;;;;;;;;18.30;46.80;;;;;;5019321;28;19984;-58
2022/04/04 02:20:31;;;;;;;;;;;18.30;46.80;;;;;;5019871;28;20286;-59
2022/04/04 02:22:57;;;;;;;;;;;18.30;47.50;;;;;;5019645;28;19913;-59
2022/04/04 02:25:22;;;;;;;;;;;18.20;46.80;;;;;;5019261;28;19943;-55
2022/04/04 02:27:48;;;;;;;;;;;18.10;46.80;;;;;;5019186;28;19924;-59
2022/04/04 02:30:13;;;;;;;;;;;18.10;46.80;;;;;;5019023;28;19921;-59
2022/04/04 02:32:39;;;;;;;;;;;18.00;47.00;;;;;;5019276;28;20424;-59
2022/04/04 02:35:05;;;;;;;;;;;18.00;46.80;;;;;;5019508;28;19917;-57
2022/04/04 02:37:30;;;;;;;;;;;17.90;46.90;;;;;;5019497;28;20429;-58
2022/04/04 02:39:56;;;;;;;;;;;17.90;46.80;;;;;;5018407;28;19928;-58
2022/04/04 02:42:22;;;;;;;;;;;17.80;47.00;;;;;;5020158;28;19940;-58
2022/04/04 02:44:47;;;;;;;;;;;17.80;47.10;;;;;;5018974;28;19927;-59
2022/04/04 02:47:13;;;;;;;;;;;17.70;47.20;;;;;;5019060;28;19913;-59
2022/04/04 02:49:38;;;;;;;;;;;17.70;47.30;;;;;;5018082;28;20425;-59
2022/04/04 02:52:04;;;;;;;;;;;17.70;47.40;;;;;;5018835;28;20175;-59
2022/04/04 02:54:29;;;;;;;;;;;17.60;47.50;;;;;;5018470;28;19920;-56
2022/04/04 02:56:55;;;;;;;;;;;17.60;48.10;;;;;;5018566;28;19913;-59
2022/04/04 02:59:21;;;;;;;;;;;17.60;47.50;;;;;;5018685;28;20336;-59
2022/04/04 03:01:48;;;;;;;;;;;17.60;47.50;;;;;;5018227;28;19979;-59
2022/04/04 03:04:14;;;;;;;;;;;17.60;47.50;;;;;;5018804;28;19983;-59
2022/04/04 03:06:40;;;;;;;;;;;17.50;48.10;;;;;;5018427;28;20375;-58
2022/04/04 03:09:05;;;;;;;;;;;17.50;47.50;;;;;;5018361;28;19918;-59
2022/04/04 03:11:31;;;;;;;;;;;17.50;47.60;;;;;;5018700;28;19913;-59
2022/04/04 03:13:56;;;;;;;;;;;17.40;47.60;;;;;;5018656;28;20665;-59
2022/04/04 03:16:22;;;;;;;;;;;17.40;47.80;;;;;;5018863;28;19921;-59
2022/04/04 03:18:47;;;;;;;;;;;17.30;47.80;;;;;;5017999;28;20635;-59
2022/04/04 03:21:13;;;;;;;;;;;17.20;48.00;;;;;;5018613;28;19986;-58
2022/04/04 03:23:39;;;;;;;;;;;17.20;47.90;;;;;;5018531;28;19914;-59
2022/04/04 03:26:09;;;;;;;;;;;17.20;48.00;;;;;;5018150;28;19923;-59
2022/04/04 03:28:35;;;;;;;;;;;17.20;47.80;;;;;;5021436;28;19952;-59
2022/04/04 03:31:01;;;;;;;;;;;17.20;48.00;;;;;;5021718;28;20039;-59
2022/04/04 03:33:26;;;;;;;;;;;17.10;48.40;;;;;;5018877;28;19921;-59
2022/04/04 03:35:53;;;;;;;;;;;17.10;48.10;;;;;;5021883;28;19983;-56
2022/04/04 03:38:18;;;;;;;;;;;17.10;48.20;;;;;;5021899;28;19920;-58
2022/04/04 03:40:44;;;;;;;;;;;17.10;48.00;;;;;;5021941;28;19925;-58
2022/04/04 03:43:09;;;;;;;;;;;17.20;48.00;;;;;;5021959;28;19913;-58
2022/04/04 03:45:35;;;;;;;;;;;17.20;48.10;;;;;;5021273;28;19952;-58
2022/04/04 03:48:00;;;;;;;;;;;17.20;48.00;;;;;;5021161;28;19913;-59
2022/04/04 03:50:26;;;;;;;;;;;17.30;47.70;;;;;;5020950;28;19943;-59
2022/04/04 03:52:52;;;;;;;;;;;17.30;47.40;;;;;;5022160;28;19960;-58
2022/04/04 03:55:17;;;;;;;;;;;17.40;47.40;;;;;;5021420;28;20344;-59
2022/04/04 03:57:44;;;;;;;;;;;17.40;47.40;;;;;;5019898;28;19920;-58
2022/04/04 04:00:10;;;;;;;;;;;17.50;47.30;;;;;;5020832;28;20418;-59
2022/04/04 04:02:35;;;;;;;;;;;17.50;47.10;;;;;;5020762;28;19917;-58
2022/04/04 04:05:01;;;;;;;;;;;17.50;47.10;;;;;;5022384;28;20008;-59
2022/04/04 04:07:26;;;;;;;;;;;17.50;47.10;;;;;;5021704;28;19913;-59
2022/04/04 04:09:53;;;;;;;;;;;17.50;47.20;;;;;;5019223;28;19917;-59
2022/04/04 04:12:20;;;;;;;;;;;17.40;47.20;;;;;;5021108;28;19913;-58
2022/04/04 04:14:46;;;;;;;;;;;17.50;47.30;;;;;;5021055;28;19987;-59
2022/04/04 04:17:13;;;;;;;;;;;17.50;47.40;;;;;;5021014;28;20046;-59
2022/04/04 04:22:23;;;;;;;;;;;17.50;47.50;;;;;;5011955;28;19979;-58
2022/04/04 04:24:49;;;;;;;;;;;17.40;47.40;;;;;;5020340;28;20389;-58
2022/04/04 04:27:14;;;;;;;;;;;17.40;47.60;;;;;;5022472;28;19921;-58
2022/04/04 04:29:40;;;;;;;;;;;17.40;47.60;;;;;;5003295;28;20307;-58
2022/04/04 04:32:07;;;;;;;;;;;17.30;47.60;;;;;;5021629;28;19971;-58
2022/04/04 04:34:34;;;;;;;;;;;17.30;47.70;;;;;;5021574;28;19998;-59
2022/04/04 04:36:59;;;;;;;;;;;17.30;47.80;;;;;;5020966;28;19917;-58
2022/04/04 04:39:25;;;;;;;;;;;17.20;47.70;;;;;;5020594;28;19929;-55
2022/04/04 04:41:50;;;;;;;;;;;17.20;47.70;;;;;;5021663;28;19920;-57
2022/04/04 04:44:16;;;;;;;;;;;17.20;47.80;;;;;;5020505;28;19921;-57
2022/04/04 04:46:52;;;;;;;;;;;17.20;47.80;;;;;;5019428;28;19921;-58
2022/04/04 04:49:22;;;;;;;;;;;17.30;47.70;;;;;;5010487;28;19925;-58
2022/04/04 04:51:47;;;;;;;;;;;17.40;47.80;;;;;;5019888;28;19921;-58
2022/04/04 04:54:12;;;;;;;;;;;17.40;47.90;;;;;;5020235;28;19913;-57
2022/04/04 04:56:38;;;;;;;;;;;17.40;48.00;;;;;;5019821;28;19913;-59
2022/04/04 04:59:04;;;;;;;;;;;17.50;47.90;;;;;;5019185;28;20561;-58
2022/04/04 05:01:29;;;;;;;;;;;17.50;47.90;;;;;;5020116;28;19982;-58
2022/04/04 05:03:55;;;;;;;;;;;17.50;48.00;;;;;;5020314;28;19920;-57
2022/04/04 05:06:20;;;;;;;;;;;17.60;48.00;;;;;;5021058;28;19921;-58
2022/04/04 05:08:46;;;;;;;;;;;17.60;48.00;;;;;;5019443;28;19917;-58
2022/04/04 05:11:11;;;;;;;;;;;17.70;47.90;;;;;;5019956;28;20552;-59
2022/04/04 05:13:36;;;;;;;;;;;17.70;47.90;;;;;;5019449;28;19913;-59
2022/04/04 05:16:07;;;;;;;;;;;17.80;47.80;;;;;;5019467;28;19921;-57
2022/04/04 05:18:32;;;;;;;;;;;17.80;47.70;;;;;;5019209;28;20666;-59
2022/04/04 05:20:58;;;;;;;;;;;17.80;47.40;;;;;;5019508;28;20004;-58
2022/04/04 05:23:23;;;;;;;;;;;17.80;47.40;;;;;;5019852;28;20333;-59
2022/04/04 05:25:48;;;;;;;;;;;17.90;47.20;;;;;;5019692;28;19919;-57
2022/04/04 05:28:14;;;;;;;;;;;17.90;47.10;;;;;;5019080;28;19913;-59
2022/04/04 05:30:41;;;;;;;;;;;17.90;47.00;;;;;;5019233;28;20370;-58
2022/04/04 05:33:08;;;;;;;;;;;17.90;46.90;;;;;;5018196;28;19917;-58
2022/04/04 05:35:33;;;;;;;;;;;17.90;46.80;;;;;;5019991;28;20425;-59
2022/04/04 05:37:59;;;;;;;;;;;18.00;46.80;;;;;;5020076;28;19917;-59
2022/04/04 05:40:24;;;;;;;;;;;18.00;46.70;;;;;;5019231;28;20332;-59
2022/04/04 05:42:50;;;;;;;;;;;18.00;46.60;;;;;;5019282;28;19921;-59
2022/04/04 05:45:16;;;;;;;;;;;18.00;47.20;;;;;;5028957;22;19915;-59
2022/04/04 05:47:41;;;;;;;;;;;18.00;46.50;;;;;;5024462;28;19992;-58
2022/04/04 05:50:07;;;;;;;;;;;18.10;46.40;;;;;;5019866;28;20109;-58
2022/04/04 05:52:34;;;;;;;;;;;18.10;46.40;;;;;;5018727;28;19913;-58
2022/04/04 05:55:03;;;;;;;;;;;18.10;46.60;;;;;;5019189;28;19967;-58
2022/04/04 05:57:30;;;;;;;;;;;18.20;46.80;;;;;;5018670;28;19913;-57
2022/04/04 05:59:55;;;;;;;;;;;18.20;46.80;;;;;;5018824;28;19929;-52
2022/04/04 06:02:22;;;;;;;;;;;18.20;46.90;;;;;;5017114;28;20435;-59
2022/04/04 06:04:48;;;;;;;;;;;18.10;46.70;;;;;;5019061;28;19929;-58
2022/04/04 06:07:13;;;;;;;;;;;18.10;46.70;;;;;;5019739;28;19913;-60
2022/04/04 06:09:39;;;;;;;;;;;18.10;46.70;;;;;;5018706;28;19913;-59
2022/04/04 06:12:04;;;;;;;;;;;18.10;46.80;;;;;;5018905;28;19940;-58
2022/04/04 06:14:30;;;;;;;;;;;18.10;46.80;;;;;;5017732;28;20536;-58
2022/04/04 06:16:55;;;;;;;;;;;18.10;46.90;;;;;;5018575;28;19984;-59
2022/04/04 06:19:21;;;;;;;;;;;18.00;46.90;;;;;;5017773;28;21841;-58
2022/04/04 06:21:46;;;;;;;;;;;18.00;46.90;;;;;;5019134;28;19913;-59
2022/04/04 06:24:12;;;;;;;;;;;18.00;47.00;;;;;;5018850;28;19913;-59
2022/04/04 06:26:39;;;;;;;;;;;17.90;47.00;;;;;;5018556;28;19920;-59
2022/04/04 06:29:04;;;;;;;;;;;18.00;47.10;;;;;;5017911;28;19913;-59
2022/04/04 06:31:29;;;;;;;;;;;17.90;47.20;;;;;;5019412;28;19924;-59
2022/04/04 06:33:55;;;;;;;;;;;18.00;47.40;;;;;;5019392;28;19940;-58
2022/04/04 06:36:23;;;;;;;;;;;18.00;47.70;;;;;;5018794;28;20427;-59
2022/04/04 06:38:49;;;;;;;;;;;17.90;47.90;;;;;;5016666;28;20010;-58
2022/04/04 06:41:14;;;;;;;;;;;18.00;48.20;;;;;;5018604;28;19920;-55
2022/04/04 06:43:40;;;;;;;;;;;17.90;48.30;;;;;;5018314;28;19918;-58
2022/04/04 06:46:06;;;;;;;;;;;17.90;48.30;;;;;;5017702;28;20061;-58
2022/04/04 06:48:31;;;;;;;;;;;18.00;48.50;;;;;;5017798;28;19914;-58
2022/04/04 06:50:59;;;;;;;;;;;17.90;48.50;;;;;;5018646;28;19913;-58
2022/04/04 06:53:24;;;;;;;;;;;17.90;48.50;;;;;;5018754;28;20115;-58
2022/04/04 06:55:50;;;;;;;;;;;17.90;48.60;;;;;;5018355;28;19921;-58
2022/04/04 06:58:15;;;;;;;;;;;17.90;48.60;;;;;;5018827;28;19983;-58
2022/04/04 07:00:41;;;;;;;;;;;18.00;48.60;;;;;;5017222;28;20617;-57
2022/04/04 07:03:08;;;;;;;;;;;18.00;48.60;;;;;;5021952;28;20583;-58
2022/04/04 07:05:34;;;;;;;;;;;18.00;48.60;;;;;;5022188;28;20557;-58
2022/04/04 07:07:59;;;;;;;;;;;18.00;48.60;;;;;;5022696;28;19943;-57
2022/04/04 07:10:25;;;;;;;;;;;18.00;48.70;;;;;;5021600;28;20216;-58
2022/04/04 07:12:50;;;;;;;;;;;17.90;48.70;;;;;;5022434;28;20016;-57
2022/04/04 07:15:16;;;;;;;;;;;18.00;48.70;;;;;;5020788;28;20436;-58
2022/04/04 07:17:42;;;;;;;;;;;18.00;49.00;;;;;;5021904;28;20019;-58
2022/04/04 07:20:08;;;;;;;;;;;17.90;49.30;;;;;;5020548;28;19927;-58
2022/04/04 07:22:35;;;;;;;;;;;18.00;49.50;;;;;;5020059;28;19953;-58
2022/04/04 07:25:00;;;;;;;;;;;18.00;49.70;;;;;;5021312;28;20289;-57
2022/04/04 07:27:26;;;;;;;;;;;18.00;49.70;;;;;;5020760;28;19919;-58
2022/04/04 07:29:51;;;;;;;;;;;18.00;49.90;;;;;;5021042;28;19913;-58
2022/04/04 07:32:17;;;;;;;;;;;18.00;49.90;;;;;;5021445;28;19920;-58
2022/04/04 07:34:42;;;;;;;;;;;18.00;49.80;;;;;;5021532;28;19914;-58
2022/04/04 07:37:08;;;;;;;;;;;17.90;49.80;;;;;;5021553;28;19913;-56
2022/04/04 07:39:33;;;;;;;;;;;17.90;49.90;;;;;;5020290;28;19917;-58
2022/04/04 07:41:59;;;;;;;;;;;17.90;49.80;;;;;;5021202;28;19913;-58
2022/04/04 07:44:24;;;;;;;;;;;17.90;49.80;;;;;;5021320;28;20405;-58
2022/04/04 07:46:50;;;;;;;;;;;17.90;49.70;;;;;;5020695;28;19932;-58
2022/04/04 07:49:17;;;;;;;;;;;17.90;49.70;;;;;;5021159;28;20382;-59
2022/04/04 07:51:42;;;;;;;;;;;18.00;49.80;;;;;;5021719;28;20374;-58
2022/04/04 07:54:07;;;;;;;;;;;18.00;49.70;;;;;;5021424;28;19962;-56
2022/04/04 07:56:33;;;;;;;;;;;18.00;49.80;;;;;;5020880;28;20282;-58
2022/04/04 07:58:58;;;;;;;;;;;18.00;49.70;;;;;;5020083;28;20308;-58
2022/04/04 08:01:24;;;;;;;;;;;18.00;49.70;;;;;;5021165;28;19917;-57
2022/04/04 08:03:49;;;;;;;;;;;18.00;49.80;;;;;;5020693;28;19913;-57
2022/04/04 08:06:15;;;;;;;;;;;18.00;49.80;;;;;;5020967;28;20076;-57
2022/04/04 08:08:40;;;;;;;;;;;18.00;49.70;;;;;;5020916;28;19913;-57
2022/04/04 08:11:08;;;;;;;;;;;18.00;49.70;;;;;;5021192;28;19914;-57
2022/04/04 08:13:33;;;;;;;;;;;18.00;49.70;;;;;;5021344;28;19913;-58
2022/04/04 08:16:00;;;;;;;;;;;18.00;49.50;;;;;;5022456;28;19917;-57
2022/04/04 08:18:26;;;;;;;;;;;18.10;49.50;;;;;;5022847;28;20008;-58
2022/04/04 08:20:52;;;;;;;;;;;18.10;49.40;;;;;;5020650;28;20036;-58
2022/04/04 08:23:17;;;;;;;;;;;18.10;49.30;;;;;;5020603;28;19921;-58
2022/04/04 08:25:43;;;;;;;;;;;18.10;49.20;;;;;;5020237;28;19917;-58
2022/04/04 08:28:08;;;;;;;;;;;18.10;49.10;;;;;;5019905;28;20401;-58
2022/04/04 08:30:33;;;;;;;;;;;18.10;49.10;;;;;;5019429;28;19917;-58
2022/04/04 08:32:59;;;;;;;;;;;18.20;49.10;;;;;;5020201;28;19966;-58
2022/04/04 08:35:25;;;;;;;;;;;18.20;49.00;;;;;;5020337;28;19913;-56
2022/04/04 08:37:50;;;;;;;;;;;18.20;48.90;;;;;;5020329;28;19921;-56
2022/04/04 08:40:18;;;;;;;;;;;18.20;48.80;;;;;;5018432;28;19928;-57
2022/04/04 08:42:44;;;;;;;;;;;18.20;48.70;;;;;;5020647;28;19913;-58
2022/04/04 08:45:09;;;;;;;;;;;18.30;48.80;;;;;;5020445;28;20105;-58
2022/04/04 08:47:35;;;;;;;;;;;18.30;48.70;;;;;;5020579;28;20074;-57
2022/04/04 08:50:01;;;;;;;;;;;18.30;48.70;;;;;;5019783;28;19913;-58
2022/04/04 08:52:27;;;;;;;;;;;18.30;48.70;;;;;;5020220;28;20208;-58
2022/04/04 08:54:52;;;;;;;;;;;18.30;48.60;;;;;;5020278;28;20425;-58
2022/04/04 08:57:18;;;;;;;;;;;18.40;48.70;;;;;;5019895;28;19925;-59
2022/04/04 08:59:44;;;;;;;;;;;18.40;48.60;;;;;;5019365;28;19925;-58
2022/04/04 09:02:09;;;;;;;;;;;18.40;48.50;;;;;;5020433;28;19924;-58
2022/04/04 09:04:35;;;;;;;;;;;18.40;48.40;;;;;;5019626;28;20099;-58
2022/04/04 09:07:05;;;;;;;;;;;18.40;48.30;;;;;;5018689;28;19913;-58
2022/04/04 09:09:36;;;;;;;;;;;18.40;48.20;;;;;;5019660;28;19944;-58
2022/04/04 09:12:06;;;;;;;;;;;18.40;48.20;;;;;;5020094;28;19914;-58
2022/04/04 09:14:34;;;;;;;;;;;18.50;48.20;;;;;;5020574;28;19987;-58
2022/04/04 09:16:59;;;;;;;;;;;18.50;48.20;;;;;;5018870;28;20011;-57
2022/04/04 09:19:29;;;;;;;;;;;18.50;48.20;;;;;;5020161;28;19970;-58
2022/04/04 09:21:54;;;;;;;;;;;18.50;48.20;;;;;;5013787;28;20010;-58
2022/04/04 09:24:20;;;;;;;;;;;18.50;48.20;;;;;;5019720;28;19945;-57
2022/04/04 09:26:45;;;;;;;;;;;18.50;48.20;;;;;;5020624;28;19921;-58
2022/04/04 09:29:18;;;;;;;;;;;18.50;48.80;;;;;;5019459;28;20620;-58
2022/04/04 09:31:53;;;;;;;;;;;18.50;48.10;;;;;;5018801;28;19942;-58
2022/04/04 09:34:19;;;;;;;;;;;18.50;48.20;;;;;;5019540;28;19920;-58
2022/04/04 09:36:46;;;;;;;;;;;18.50;48.10;;;;;;5019265;28;19933;-57
2022/04/04 09:39:11;;;;;;;;;;;18.50;48.10;;;;;;5019590;28;19913;-58
2022/04/04 09:41:37;;;;;;;;;;;18.50;48.20;;;;;;5018346;28;20342;-58
2022/04/04 09:44:04;;;;;;;;;;;18.50;48.10;;;;;;5018484;28;19913;-58
2022/04/04 09:46:33;;;;;;;;;;;18.50;48.20;;;;;;5019526;28;19999;-58
2022/04/04 09:49:04;;;;;;;;;;;18.50;48.20;;;;;;5017778;28;20397;-59
2022/04/04 09:51:52;;;;;;;;;;;18.40;48.10;;;;;;5019806;28;19966;-58
2022/04/04 09:54:22;;;;;;;;;;;18.40;48.10;;;;;;5019387;28;21401;-58
2022/04/04 09:56:48;;;;;;;;;;;18.40;48.10;;;;;;5018640;28;19921;-58
2022/04/04 09:59:15;;;;;;;;;;;18.30;48.20;;;;;;5018381;28;19928;-58
2022/04/04 10:01:40;;;;;;;;;;;18.40;48.20;;;;;;5019171;28;19956;-58
2022/04/04 10:04:06;;;;;;;;;;;18.30;48.30;;;;;;5019511;28;19914;-58
2022/04/04 10:06:32;;;;;;;;;;;18.40;48.30;;;;;;5017911;28;19921;-58
2022/04/04 10:08:58;;;;;;;;;;;18.40;48.30;;;;;;5018394;28;19919;-59
2022/04/04 10:11:23;;;;;;;;;;;18.30;48.30;;;;;;5019559;28;19920;-59
2022/04/04 10:13:49;;;;;;;;;;;18.30;48.30;;;;;;5018750;28;19913;-59
2022/04/04 10:16:15;;;;;;;;;;;18.30;48.30;;;;;;5017465;28;19941;-58
2022/04/04 10:18:42;;;;;;;;;;;18.30;48.30;;;;;;5017689;28;19913;-59
2022/04/04 10:21:08;;;;;;;;;;;18.30;48.40;;;;;;5018500;28;19952;-59
2022/04/04 10:23:33;;;;;;;;;;;18.30;48.40;;;;;;5018578;28;19920;-59
2022/04/04 10:26:00;;;;;;;;;;;18.30;48.50;;;;;;5017608;28;19978;-58
2022/04/04 10:28:26;;;;;;;;;;;18.30;48.40;;;;;;5019818;28;19920;-58
2022/04/04 10:30:52;;;;;;;;;;;18.30;48.40;;;;;;5018738;28;20032;-59
2022/04/04 10:33:19;;;;;;;;;;;18.30;48.40;;;;;;5016816;28;20686;-59
2022/04/04 10:35:57;;;;;;;;;;;18.30;48.40;;;;;;5019188;28;19913;-59
2022/04/04 10:38:27;;;;;;;;;;;18.30;48.30;;;;;;5021319;28;19913;-58
2022/04/04 10:40:53;;;;;;;;;;;18.30;48.30;;;;;;5022827;28;19999;-58
2022/04/04 10:43:18;;;;;;;;;;;18.30;48.30;;;;;;5023209;28;20047;-56
2022/04/04 10:45:57;;;;;;;;;;;18.30;48.30;;;;;;5020573;28;19928;-59
2022/04/04 10:48:42;;;;;;;;;;;18.30;48.30;;;;;;5020821;28;19920;-58
2022/04/04 10:51:19;;;;;;;;;;;18.30;48.30;;;;;;5004793;28;19917;-59
2022/04/04 10:53:53;;;;;;;;;;;18.30;48.20;;;;;;5022449;28;20002;-56
2022/04/04 10:56:22;;;;;;;;;;;18.30;48.20;;;;;;5020776;28;20100;-58
2022/04/04 10:58:48;;;;;;;;;;;18.30;48.20;;;;;;5020327;28;19925;-58
2022/04/04 11:01:20;;;;;;;;;;;18.30;48.10;;;;;;5022272;28;19963;-61
2022/04/04 11:03:52;;;;;;;;;;;18.30;48.00;;;;;;5021910;28;19913;-56
2022/04/04 11:09:05;;;;;;;;;;;18.30;47.90;;;;;;5017069;28;19919;-57
2022/04/04 11:11:49;;;;;;;;;;;18.40;47.90;;;;;;5021084;28;20014;-58
2022/04/04 11:14:19;;;;;;;;;;;18.40;47.90;;;;;;5021932;28;20203;-59
2022/04/04 11:17:03;;;;;;;;;;;18.40;47.80;;;;;;5020395;28;19914;-59
2022/04/04 11:19:29;;;;;;;;;;;18.40;47.70;;;;;;5018625;28;19921;-58
2022/04/04 11:21:54;;;;;;;;;;;18.40;47.70;;;;;;5021170;28;19913;-59
2022/04/04 11:24:20;;;;;;;;;;;18.40;47.70;;;;;;5020356;28;19920;-59
2022/04/04 11:26:46;;;;;;;;;;;18.40;47.70;;;;;;5021444;28;20488;-59
2022/04/04 11:29:15;;;;;;;;;;;18.50;47.60;;;;;;5019891;28;19967;-58
2022/04/04 11:31:47;;;;;;;;;;;18.50;47.60;;;;;;5019635;28;19914;-59
2022/04/04 11:34:13;;;;;;;;;;;18.50;47.60;;;;;;5020002;28;19948;-58
2022/04/04 11:36:39;;;;;;;;;;;18.50;47.50;;;;;;5021547;28;20178;-59
2022/04/04 11:39:08;;;;;;;;;;;18.50;47.40;;;;;;5019550;28;20115;-58
2022/04/04 11:41:36;;;;;;;;;;;18.50;47.50;;;;;;5021330;28;19944;-57
2022/04/04 11:44:04;;;;;;;;;;;18.50;47.30;;;;;;5021228;28;19924;-58
2022/04/04 11:46:30;;;;;;;;;;;18.50;47.20;;;;;;5020745;28;20397;-58
2022/04/04 11:48:56;;;;;;;;;;;18.50;47.20;;;;;;5020346;28;19920;-59
2022/04/04 11:51:25;;;;;;;;;;;18.60;47.30;;;;;;5021363;28;19919;-59
2022/04/04 11:53:59;;;;;;;;;;;18.60;47.20;;;;;;5020766;28;19968;-56
2022/04/04 11:56:26;;;;;;;;;;;18.60;47.10;;;;;;5018797;28;19913;-57
2022/04/04 11:58:54;;;;;;;;;;;18.60;47.10;;;;;;5020327;28;20161;-58
2022/04/04 12:01:19;;;;;;;;;;;18.60;47.10;;;;;;5020948;28;19960;-58
2022/04/04 12:03:49;;;;;;;;;;;18.60;47.10;;;;;;5020682;28;20092;-58
2022/04/04 12:06:15;;;;;;;;;;;18.60;47.10;;;;;;5020662;28;20330;-58
2022/04/04 12:08:42;;;;;;;;;;;18.60;47.10;;;;;;5018507;28;19939;-58
2022/04/04 12:11:09;;;;;;;;;;;18.60;47.10;;;;;;5020645;28;19918;-58
2022/04/04 12:13:35;;;;;;;;;;;18.60;47.10;;;;;;5020723;28;19917;-59
2022/04/04 12:16:00;;;;;;;;;;;18.60;47.00;;;;;;5018897;28;19922;-58
2022/04/04 12:18:26;;;;;;;;;;;18.60;47.00;;;;;;5021384;28;19971;-58
2022/04/04 12:20:54;;;;;;;;;;;18.60;46.90;;;;;;5019882;28;20516;-58
2022/04/04 12:26:07;;;;;;;;;;;18.60;47.00;;;;;;5020594;28;19921;-58
2022/04/04 12:28:33;;;;;;;;;;;18.70;47.00;;;;;;5020232;28;19936;-59
2022/04/04 12:31:18;;;;;;;;;;;18.70;47.00;;;;;;5020510;28;19913;-59
2022/04/04 12:33:43;;;;;;;;;;;18.70;47.10;;;;;;5020006;28;20213;-58
2022/04/04 12:36:09;;;;;;;;;;;18.70;47.10;;;;;;5018557;28;19913;-57
2022/04/04 12:38:36;;;;;;;;;;;18.70;47.00;;;;;;5019498;28;19944;-58
2022/04/04 12:41:07;;;;;;;;;;;18.70;47.00;;;;;;5019571;28;19956;-58
2022/04/04 12:43:33;;;;;;;;;;;18.70;47.00;;;;;;5019655;28;19913;-59
2022/04/04 12:45:58;;;;;;;;;;;18.70;47.00;;;;;;5018393;28;19928;-58
2022/04/04 12:48:43;;;;;;;;;;;18.70;47.00;;;;;;5019117;28;20724;-58
2022/04/04 12:51:09;;;;;;;;;;;18.70;47.10;;;;;;5020376;28;19913;-58
2022/04/04 12:53:50;;;;;;;;;;;18.70;47.00;;;;;;5017938;28;19913;-57
2022/04/04 12:56:15;;;;;;;;;;;18.70;47.00;;;;;;5018177;28;20047;-59
2022/04/04 12:58:41;;;;;;;;;;;18.70;47.10;;;;;;5018310;28;19999;-58
2022/04/04 13:01:15;;;;;;;;;;;18.60;47.00;;;;;;5019146;28;19925;-58
2022/04/04 13:03:51;;;;;;;;;;;18.60;47.00;;;;;;5019651;28;19920;-57
2022/04/04 13:06:17;;;;;;;;;;;18.70;47.60;;;;;;5019358;28;20583;-58
2022/04/04 13:08:55;;;;;;;;;;;18.70;47.10;;;;;;5019047;28;19913;-56
2022/04/04 13:11:21;;;;;;;;;;;18.70;47.00;;;;;;5019421;28;19913;-58
2022/04/04 13:14:06;;;;;;;;;;;18.60;46.90;;;;;;5019350;28;20075;-58
2022/04/04 13:16:32;;;;;;;;;;;18.70;47.00;;;;;;5019117;28;19913;-58
2022/04/04 13:18:58;;;;;;;;;;;18.70;47.00;;;;;;5019272;28;19917;-57
2022/04/04 13:21:23;;;;;;;;;;;18.70;46.90;;;;;;5019742;28;20070;-58
2022/04/04 13:23:49;;;;;;;;;;;18.70;46.90;;;;;;5023745;28;22031;-58
2022/04/04 13:26:14;;;;;;;;;;;18.60;46.90;;;;;;5020276;28;20099;-56
2022/04/04 13:28:39;;;;;;;;;;;18.70;46.90;;;;;;5019224;28;19913;-58
2022/04/04 13:31:05;;;;;;;;;;;18.70;46.90;;;;;;5018811;28;19952;-57
2022/04/04 13:33:31;;;;;;;;;;;18.70;46.90;;;;;;5019322;28;20466;-59
2022/04/04 13:35:56;;;;;;;;;;;18.70;46.90;;;;;;5018811;28;19952;-59
2022/04/04 13:38:22;;;;;;;;;;;18.70;46.80;;;;;;5019022;28;20389;-58
2022/04/04 13:40:47;;;;;;;;;;;18.70;46.80;;;;;;5018377;28;20018;-59
2022/04/04 13:43:13;;;;;;;;;;;18.70;46.90;;;;;;5017752;28;19921;-58
2022/04/04 13:45:38;;;;;;;;;;;18.70;46.90;;;;;;5018799;28;19925;-59
2022/04/04 13:48:04;;;;;;;;;;;18.60;46.80;;;;;;5017873;28;19924;-57
2022/04/04 13:50:29;;;;;;;;;;;18.70;46.90;;;;;;5019038;28;20510;-59
2022/04/04 13:52:55;;;;;;;;;;;18.60;46.80;;;;;;5013160;28;21593;-57
2022/04/04 13:55:20;;;;;;;;;;;18.60;46.80;;;;;;5018340;28;20180;-59
2022/04/04 13:57:45;;;;;;;;;;;18.60;46.80;;;;;;5018853;28;20588;-59
2022/04/04 14:00:11;;;;;;;;;;;18.60;46.80;;;;;;5018421;28;19918;-59
2022/04/04 14:02:40;;;;;;;;;;;18.60;46.80;;;;;;5018755;28;19918;-58
2022/04/04 14:05:07;;;;;;;;;;;18.60;46.80;;;;;;5020501;28;19921;-58
2022/04/04 14:07:32;;;;;;;;;;;18.60;46.80;;;;;;5019387;28;19913;-58
2022/04/04 14:09:59;;;;;;;;;;;18.60;46.80;;;;;;5018679;28;19920;-58
2022/04/04 14:12:24;;;;;;;;;;;18.60;46.80;;;;;;5019314;28;19960;-59
2022/04/04 14:14:50;;;;;;;;;;;18.60;46.70;;;;;;5019504;28;20006;-58
2022/04/04 14:17:17;;;;;;;;;;;18.60;46.80;;;;;;5018911;28;20304;-59
2022/04/04 14:19:43;;;;;;;;;;;18.50;46.80;;;;;;5018436;28;19928;-58
2022/04/04 14:22:13;;;;;;;;;;;18.50;46.80;;;;;;5018263;28;22416;-57